createdAt,value
2019-03-01T00:01:25.962Z,100126.99
2019-03-01T00:04:22.378Z,100125.17
2019-03-01T00:07:12.036Z,100124.77
2019-03-01T00:10:19.516Z,100123.87
2019-03-01T00:13:29.450Z,100115.52
2019-03-01T00:16:50.795Z,100118.67
2019-03-01T00:20:14.052Z,100119.58
2019-03-01T00:23:17.778Z,100119.09
2019-03-01T00:26:12.985Z,100109.29
2019-03-01T00:29:22.833Z,100109.23
2019-03-01T00:32:20.865Z,100107.14
2019-03-01T00:35:20.251Z,100099.45
2019-03-01T00:38:38.679Z,100101.39
2019-03-01T00:41:59.325Z,100088.09
2019-03-01T00:44:40.888Z,100097.47
2019-03-01T00:47:14.951Z,100083.94
2019-03-01T00:49:42.072Z,100087.09
2019-03-01T00:52:10.151Z,100076.34
2019-03-01T00:54:37.254Z,100084.31
2019-03-01T00:57:06.363Z,100081.15
2019-03-01T00:59:35.294Z,100080.31
2019-03-01T01:02:04.323Z,100080.23
2019-03-01T01:04:32.545Z,100084.31
2019-03-01T01:06:59.650Z,100089.20
2019-03-01T01:09:27.687Z,100089.05
2019-03-01T01:11:54.809Z,100087.45
2019-03-01T01:14:22.093Z,100084.31
2019-03-01T01:16:49.240Z,100080.77
2019-03-01T01:19:16.343Z,100080.11
2019-03-01T01:21:43.448Z,100079.45
2019-03-01T01:24:10.556Z,100076.61
2019-03-01T01:26:37.685Z,100065.03
2019-03-01T01:29:04.999Z,100066.42
2019-03-01T01:31:35.525Z,100063.17
2019-03-01T01:34:04.040Z,100064.39
2019-03-01T01:36:32.522Z,100059.80
2019-03-01T01:39:00.737Z,100060.33
2019-03-01T01:41:27.871Z,100047.88
2019-03-01T01:43:55.018Z,100056.70
2019-03-01T01:46:22.104Z,100063.87
2019-03-01T01:48:53.386Z,100060.04
2019-03-01T01:51:20.497Z,100055.61
2019-03-01T01:53:48.030Z,100056.97
2019-03-01T01:56:18.423Z,100055.13
2019-03-01T01:58:45.684Z,100044.42
2019-03-01T02:01:12.854Z,100045.89
2019-03-01T02:03:40.096Z,100042.26
2019-03-01T02:06:07.309Z,100048.31
2019-03-01T02:08:34.529Z,100038.46
2019-03-01T02:11:01.777Z,100045.34
2019-03-01T02:13:28.897Z,100041.98
2019-03-01T02:15:56.021Z,100038.79
2019-03-01T02:18:28.854Z,100037.36
2019-03-01T02:20:56.153Z,100027.82
2019-03-01T02:23:25.165Z,100031.49
2019-03-01T02:25:52.803Z,100030.64
2019-03-01T02:28:20.024Z,100028.76
2019-03-01T02:30:48.569Z,100026.87
2019-03-01T02:33:16.017Z,100026.06
2019-03-01T02:35:45.921Z,100024.48
2019-03-01T02:38:13.111Z,100015.77
2019-03-01T02:40:40.239Z,100021.16
2019-03-01T02:43:07.331Z,100015.43
2019-03-01T02:45:34.501Z,100016.25
2019-03-01T02:48:01.836Z,100007.55
2019-03-01T02:50:32.551Z,100006.50
2019-03-01T02:52:59.700Z,99997.50
2019-03-01T02:55:28.685Z,99997.88
2019-03-01T02:57:55.844Z,99999.20
2019-03-01T03:00:27.164Z,99996.89
2019-03-01T03:02:56.275Z,99990.84
2019-03-01T03:05:23.411Z,99987.97
2019-03-01T03:07:55.248Z,99982.45
2019-03-01T03:10:24.811Z,99981.61
2019-03-01T03:13:03.790Z,99980.98
2019-03-01T03:15:33.623Z,99978.58
2019-03-01T03:18:00.726Z,99975.41
2019-03-01T03:20:27.833Z,99975.59
2019-03-01T03:22:55.001Z,99966.70
2019-03-01T03:25:22.169Z,99972.93
2019-03-01T03:27:49.258Z,99966.06
2019-03-01T03:30:16.619Z,99964.58
2019-03-01T03:32:46.399Z,99965.14
2019-03-01T03:35:13.558Z,99967.75
2019-03-01T03:37:40.769Z,99965.43
2019-03-01T03:40:08.459Z,99973.89
2019-03-01T03:42:35.693Z,99964.31
2019-03-01T03:45:03.661Z,99965.60
2019-03-01T03:47:31.160Z,99968.27
2019-03-01T03:49:59.985Z,99967.75
2019-03-01T03:52:28.860Z,99964.89
2019-03-01T03:54:55.987Z,99968.02
2019-03-01T03:57:23.134Z,99957.30
2019-03-01T03:59:50.284Z,99959.13
2019-03-01T04:02:17.423Z,99953.75
2019-03-01T04:04:44.516Z,99948.82
2019-03-01T04:07:11.776Z,99941.31
2019-03-01T04:09:38.894Z,99947.16
2019-03-01T04:12:06.029Z,99934.20
2019-03-01T04:14:33.156Z,99938.53
2019-03-01T04:17:00.353Z,99937.20
2019-03-01T04:19:27.791Z,99938.70
2019-03-01T04:21:54.905Z,99940.94
2019-03-01T04:24:22.016Z,99930.77
2019-03-01T04:26:49.118Z,99924.78
2019-03-01T04:29:16.276Z,99926.13
2019-03-01T04:31:43.385Z,99922.72
2019-03-01T04:34:10.522Z,99926.78
2019-03-01T04:36:37.671Z,99921.84
2019-03-01T04:39:05.938Z,99917.16
2019-03-01T04:41:33.518Z,99922.53
2019-03-01T04:44:00.732Z,99918.48
2019-03-01T04:46:27.829Z,99919.69
2019-03-01T04:48:54.934Z,99921.34
2019-03-01T04:51:22.123Z,99913.87
2019-03-01T04:53:49.270Z,99913.48
2019-03-01T04:56:16.383Z,99906.90
2019-03-01T04:58:43.518Z,99905.83
2019-03-01T05:01:11.908Z,99905.11
2019-03-01T05:03:38.988Z,99904.97
2019-03-01T05:06:07.891Z,99904.67
2019-03-01T05:08:34.990Z,99904.99
2019-03-01T05:11:02.132Z,99901.97
2019-03-01T05:13:29.264Z,99905.80
2019-03-01T05:15:56.380Z,99901.19
2019-03-01T05:18:23.506Z,99902.58
2019-03-01T05:20:50.617Z,99901.77
2019-03-01T05:23:17.757Z,99896.89
2019-03-01T05:25:44.843Z,99894.20
2019-03-01T05:28:11.991Z,99888.39
2019-03-01T05:30:39.103Z,99892.20
2019-03-01T05:33:06.354Z,99893.92
2019-03-01T05:35:33.494Z,99903.06
2019-03-01T05:38:00.600Z,99901.91
2019-03-01T05:40:27.799Z,99901.98
2019-03-01T05:42:57.252Z,99883.44
2019-03-01T05:45:24.829Z,99885.67
2019-03-01T05:47:52.135Z,99884.45
2019-03-01T05:50:19.395Z,99879.20
2019-03-01T05:52:48.362Z,99878.53
2019-03-01T05:55:15.502Z,99878.73
2019-03-01T05:58:19.560Z,99872.34
2019-03-01T06:00:46.654Z,99868.30
2019-03-01T06:03:44.204Z,99871.37
2019-03-01T06:06:13.299Z,99873.51
2019-03-01T06:09:15.320Z,99878.09
2019-03-01T06:12:14.830Z,99878.56
2019-03-01T06:15:28.452Z,99872.78
2019-03-01T06:18:40.323Z,99866.17
2019-03-01T06:21:48.329Z,99872.89
2019-03-01T06:24:40.531Z,99875.66
2019-03-01T06:27:50.810Z,99873.28
2019-03-01T06:30:38.817Z,99876.11
2019-03-01T06:33:44.968Z,99874.97
2019-03-01T06:36:22.214Z,99876.94
2019-03-01T06:39:49.871Z,99871.58
2019-03-01T06:42:57.094Z,99868.52
2019-03-01T06:46:21.438Z,99870.21
2019-03-01T06:48:55.950Z,99867.47
2019-03-01T06:51:29.083Z,99870.26
2019-03-01T06:53:55.270Z,99867.79
2019-03-01T06:56:22.485Z,99869.27
2019-03-01T06:58:52.901Z,99869.44
2019-03-01T07:01:25.388Z,99864.13
2019-03-01T07:03:57.205Z,99866.78
2019-03-01T07:06:24.367Z,99865.20
2019-03-01T07:08:51.471Z,99860.79
2019-03-01T07:11:18.617Z,99869.63
2019-03-01T07:13:45.721Z,99863.91
2019-03-01T07:16:12.847Z,99862.08
2019-03-01T07:18:39.999Z,99864.67
2019-03-01T07:21:07.150Z,99861.11
2019-03-01T07:23:42.585Z,99866.22
2019-03-01T07:26:12.420Z,99868.16
2019-03-01T07:28:39.864Z,99872.37
2019-03-01T07:31:07.248Z,99866.23
2019-03-01T07:33:34.533Z,99873.05
2019-03-01T07:36:01.887Z,99874.64
2019-03-01T07:38:29.267Z,99870.08
2019-03-01T07:40:56.441Z,99870.08
2019-03-01T07:43:23.573Z,99867.40
2019-03-01T07:45:50.787Z,99878.03
2019-03-01T07:48:19.124Z,99878.28
2019-03-01T07:50:46.301Z,99874.26
2019-03-01T07:53:13.607Z,99883.48
2019-03-01T07:55:40.723Z,99878.16
2019-03-01T07:58:07.815Z,99882.77
2019-03-01T08:00:34.969Z,99884.28
2019-03-01T08:03:02.073Z,99881.73
2019-03-01T08:05:29.238Z,99883.35
2019-03-01T08:07:59.710Z,99879.77
2019-03-01T08:10:25.676Z,99881.09
2019-03-01T08:12:52.771Z,99885.49
2019-03-01T08:15:20.021Z,99880.84
2019-03-01T08:17:47.148Z,99883.09
2019-03-01T08:20:14.934Z,99885.10
2019-03-01T08:22:48.513Z,99887.78
2019-03-01T08:25:11.465Z,99884.55
2019-03-01T08:27:41.963Z,99889.78
2019-03-01T08:30:11.295Z,99891.64
2019-03-01T08:32:38.803Z,99889.50
2019-03-01T08:35:07.557Z,99890.66
2019-03-01T08:37:35.064Z,99892.93
2019-03-01T08:40:02.177Z,99889.06
2019-03-01T08:42:32.713Z,99893.56
2019-03-01T08:44:59.771Z,99900.45
2019-03-01T08:47:29.195Z,99904.69
2019-03-01T08:49:56.338Z,99906.82
2019-03-01T08:52:23.460Z,99904.34
2019-03-01T08:54:50.892Z,99905.34
2019-03-01T08:57:18.013Z,99905.94
2019-03-01T08:59:45.258Z,99904.68
2019-03-01T09:02:12.385Z,99906.33
2019-03-01T09:04:39.523Z,99907.16
2019-03-01T09:07:06.690Z,99909.31
2019-03-01T09:09:33.919Z,99911.76
2019-03-01T09:12:01.088Z,99905.11
2019-03-01T09:14:28.499Z,99913.66
2019-03-01T09:16:55.584Z,99910.83
2019-03-01T09:19:25.416Z,99916.07
2019-03-01T09:21:51.891Z,99917.42
2019-03-01T09:24:18.996Z,99912.45
2019-03-01T09:26:46.152Z,99912.69
2019-03-01T09:29:18.378Z,99911.48
2019-03-01T09:31:46.741Z,99915.25
2019-03-01T09:34:19.116Z,99911.27
2019-03-01T09:36:54.957Z,99915.35
2019-03-01T09:39:20.908Z,99922.87
2019-03-01T09:41:48.023Z,99919.71
2019-03-01T09:44:15.248Z,99917.76
2019-03-01T09:46:42.614Z,99920.36
2019-03-01T09:49:12.014Z,99918.48
2019-03-01T09:51:39.418Z,99923.89
2019-03-01T09:54:09.424Z,99929.92
2019-03-01T09:56:36.678Z,99931.26
2019-03-01T09:59:03.825Z,99933.06
2019-03-01T10:01:31.085Z,99938.31
2019-03-01T10:03:58.791Z,99937.86
2019-03-01T10:06:25.939Z,99944.51
2019-03-01T10:08:53.071Z,99943.23
2019-03-01T10:11:20.263Z,99947.60
2019-03-01T10:13:47.370Z,99950.73
2019-03-01T10:16:14.589Z,99955.05
2019-03-01T10:18:42.030Z,99955.63
2019-03-01T10:21:09.253Z,99960.30
2019-03-01T10:23:36.395Z,99958.44
2019-03-01T10:26:03.701Z,99955.53
2019-03-01T10:28:30.865Z,99961.13
2019-03-01T10:30:58.134Z,99959.22
2019-03-01T10:33:25.249Z,99962.12
2019-03-01T10:35:52.360Z,99961.67
2019-03-01T10:38:19.637Z,99958.77
2019-03-01T10:40:46.748Z,99960.58
2019-03-01T10:43:14.940Z,99971.24
2019-03-01T10:45:42.072Z,99976.30
2019-03-01T10:48:11.320Z,99975.58
2019-03-01T10:50:38.449Z,99976.06
2019-03-01T10:53:05.743Z,99972.88
2019-03-01T10:55:33.514Z,99977.38
2019-03-01T10:58:01.068Z,99977.15
2019-03-01T11:00:28.501Z,99983.13
2019-03-01T11:02:55.600Z,99983.80
2019-03-01T11:05:23.351Z,99983.95
2019-03-01T11:07:51.296Z,99987.45
2019-03-01T11:10:20.811Z,99986.94
2019-03-01T11:12:47.936Z,99987.42
2019-03-01T11:15:15.222Z,99988.64
2019-03-01T11:17:42.338Z,99993.84
2019-03-01T11:20:10.437Z,99997.02
2019-03-01T11:22:37.615Z,99997.67
2019-03-01T11:25:06.216Z,99995.50
2019-03-01T11:27:33.332Z,99994.73
2019-03-01T11:30:00.463Z,99992.13
2019-03-01T11:32:27.561Z,99999.30
2019-03-01T11:34:58.367Z,100003.32
2019-03-01T11:37:28.511Z,100002.09
2019-03-01T11:39:55.632Z,100000.56
2019-03-01T11:42:22.731Z,100006.22
2019-03-01T11:44:49.936Z,100006.92
2019-03-01T11:47:17.065Z,99997.74
2019-03-01T11:49:44.204Z,100000.45
2019-03-01T11:52:11.362Z,100002.20
2019-03-01T11:54:38.505Z,99999.00
2019-03-01T11:57:05.816Z,100003.10
2019-03-01T11:59:33.009Z,100000.78
2019-03-01T12:02:17.862Z,99998.67
2019-03-01T12:05:05.989Z,100004.98
2019-03-01T12:07:37.326Z,100005.14
2019-03-01T12:10:07.137Z,100018.83
2019-03-01T12:12:34.409Z,100018.73
2019-03-01T12:15:01.467Z,100015.37
2019-03-01T12:17:28.714Z,100022.86
2019-03-01T12:19:55.922Z,100020.69
2019-03-01T12:22:23.041Z,100024.34
2019-03-01T12:24:50.272Z,100027.60
2019-03-01T12:27:17.374Z,100030.67
2019-03-01T12:29:44.498Z,100035.36
2019-03-01T12:32:11.627Z,100035.73
2019-03-01T12:34:40.034Z,100043.24
2019-03-01T12:37:07.136Z,100054.34
2019-03-01T12:39:34.329Z,100050.52
2019-03-01T12:42:01.472Z,100051.82
2019-03-01T12:44:28.605Z,100055.00
2019-03-01T12:46:56.018Z,100055.88
2019-03-01T12:49:23.176Z,100055.39
2019-03-01T12:51:50.378Z,100063.22
2019-03-01T12:54:17.520Z,100065.38
2019-03-01T12:56:44.804Z,100066.34
2019-03-01T12:59:11.926Z,100067.19
2019-03-01T13:01:39.052Z,100068.09
2019-03-01T13:04:06.160Z,100066.66
2019-03-01T13:06:35.379Z,100063.23
2019-03-01T13:09:04.122Z,100070.05
2019-03-01T13:11:33.129Z,100062.63
2019-03-01T13:14:00.340Z,100063.92
2019-03-01T13:16:33.004Z,100060.64
2019-03-01T13:22:43.659Z,100063.87
2019-03-01T13:25:11.927Z,100059.84
2019-03-01T13:27:39.156Z,100060.20
2019-03-01T13:30:09.328Z,100052.17
2019-03-01T13:32:36.575Z,100058.77
2019-03-01T13:35:04.788Z,100061.27
2019-03-01T13:37:32.041Z,100060.94
2019-03-01T13:39:59.166Z,100067.58
2019-03-01T13:42:29.573Z,100064.59
2019-03-01T13:44:56.711Z,100072.79
2019-03-01T13:47:23.831Z,100073.12
2019-03-01T13:49:51.013Z,100073.34
2019-03-01T13:52:18.179Z,100081.21
2019-03-01T13:54:46.199Z,100081.34
2019-03-01T13:57:14.600Z,100078.61
2019-03-01T13:59:43.943Z,100076.02
2019-03-01T14:02:10.852Z,100071.05
2019-03-01T14:04:40.342Z,100068.69
2019-03-01T14:07:07.088Z,100072.43
2019-03-01T14:09:34.510Z,100072.75
2019-03-01T14:12:01.883Z,100072.28
2019-03-01T14:14:29.280Z,100084.48
2019-03-01T14:16:56.711Z,100081.30
2019-03-01T14:19:23.829Z,100083.68
2019-03-01T14:21:50.971Z,100086.88
2019-03-01T14:24:18.188Z,100080.77
2019-03-01T14:26:45.351Z,100090.94
2019-03-01T14:29:12.831Z,100099.33
2019-03-01T14:31:42.946Z,100099.27
2019-03-01T14:34:11.606Z,100103.28
2019-03-01T14:36:43.075Z,100106.20
2019-03-01T14:39:15.609Z,100104.01
2019-03-01T14:41:42.816Z,100106.80
2019-03-01T14:44:09.991Z,100110.31
2019-03-01T14:46:39.374Z,100115.80
2019-03-01T14:49:06.710Z,100132.05
2019-03-01T14:51:34.011Z,100126.58
2019-03-01T14:54:01.413Z,100124.14
2019-03-01T14:56:34.720Z,100113.73
2019-03-01T14:59:07.392Z,100123.61
2019-03-01T15:01:43.267Z,100124.55
2019-03-01T15:04:10.457Z,100138.55
2019-03-01T15:06:37.939Z,100141.77
2019-03-01T15:09:06.635Z,100134.53
2019-03-01T15:11:35.706Z,100138.44
2019-03-01T15:14:02.806Z,100146.83
2019-03-01T15:16:29.932Z,100148.20
2019-03-01T15:18:57.256Z,100154.95
2019-03-01T15:21:24.364Z,100165.20
2019-03-01T15:23:56.343Z,100175.84
2019-03-01T15:26:23.103Z,100172.47
2019-03-01T15:28:55.288Z,100175.97
2019-03-01T15:31:23.745Z,100179.22
2019-03-01T15:33:50.897Z,100180.44
2019-03-01T15:36:19.163Z,100173.03
2019-03-01T15:38:46.299Z,100181.66
2019-03-01T15:41:13.253Z,100180.45
2019-03-01T15:43:40.206Z,100188.23
2019-03-01T15:46:07.210Z,100189.34
2019-03-01T15:48:37.692Z,100191.23
2019-03-01T15:51:03.435Z,100196.70
2019-03-01T15:53:30.505Z,100201.72
2019-03-01T15:55:57.461Z,100213.26
2019-03-01T15:58:24.416Z,100212.80
2019-03-01T16:00:51.387Z,100218.55
2019-03-01T16:03:18.336Z,100217.05
2019-03-01T16:05:45.920Z,100219.16
2019-03-01T16:08:13.032Z,100221.64
2019-03-01T16:10:40.027Z,100226.84
2019-03-01T16:13:08.423Z,100226.82
2019-03-01T16:15:38.783Z,100224.03
2019-03-01T16:18:04.741Z,100238.95
2019-03-01T16:20:31.991Z,100234.22
2019-03-01T16:22:58.991Z,100231.46
2019-03-01T16:25:25.958Z,100236.85
2019-03-01T16:27:54.368Z,100238.62
2019-03-01T16:30:21.980Z,100243.14
2019-03-01T16:32:50.412Z,100236.89
2019-03-01T16:35:18.942Z,100239.12
2019-03-01T16:37:47.895Z,100250.61
2019-03-01T16:40:14.891Z,100249.66
2019-03-01T16:42:42.045Z,100248.75
2019-03-01T16:45:09.935Z,100244.09
2019-03-01T16:47:38.279Z,100254.86
2019-03-01T16:50:09.919Z,100250.31
2019-03-01T16:52:36.617Z,100258.08
2019-03-01T16:55:04.290Z,100255.82
2019-03-01T16:57:31.440Z,100257.61
2019-03-01T16:59:58.444Z,100264.72
2019-03-01T17:02:25.530Z,100267.30
2019-03-01T17:04:52.498Z,100276.05
2019-03-01T17:07:21.512Z,100279.07
2019-03-01T17:09:51.378Z,100276.81
2019-03-01T17:12:17.540Z,100285.42
2019-03-01T17:14:44.630Z,100286.17
2019-03-01T17:17:11.587Z,100293.64
2019-03-01T17:19:39.424Z,100295.56
2019-03-01T17:22:06.598Z,100296.41
2019-03-01T17:24:33.572Z,100304.29
2019-03-01T17:27:01.973Z,100304.96
2019-03-01T17:29:31.549Z,100311.09
2019-03-01T17:31:58.798Z,100309.80
2019-03-01T17:34:29.300Z,100316.17
2019-03-01T17:36:56.090Z,100320.66
2019-03-01T17:39:25.126Z,100318.36
2019-03-01T17:41:51.899Z,100325.39
2019-03-01T17:44:18.876Z,100330.18
2019-03-01T17:46:45.817Z,100326.52
2019-03-01T17:49:12.776Z,100326.92
2019-03-01T17:51:39.762Z,100332.65
2019-03-01T17:54:07.764Z,100325.07
2019-03-01T17:56:36.618Z,100328.21
2019-03-01T17:59:03.712Z,100330.06
2019-03-01T18:01:30.698Z,100335.30
2019-03-01T18:04:01.606Z,100337.84
2019-03-01T18:06:26.844Z,100338.91
2019-03-01T18:08:53.843Z,100343.39
2019-03-01T18:11:20.800Z,100345.42
2019-03-01T18:13:47.837Z,100351.45
2019-03-01T18:16:14.777Z,100352.36
2019-03-01T18:18:42.541Z,100358.73
2019-03-01T18:21:10.202Z,100365.30
2019-03-01T18:23:39.056Z,100372.61
2019-03-01T18:26:06.084Z,100372.55
2019-03-01T18:28:33.146Z,100370.70
2019-03-01T18:31:00.135Z,100380.90
2019-03-01T18:33:27.094Z,100382.02
2019-03-01T18:39:31.780Z,100375.20
2019-03-01T18:42:02.452Z,100379.41
2019-03-01T18:44:30.029Z,100377.60
2019-03-01T18:46:57.035Z,100384.75
2019-03-01T18:49:24.019Z,100388.18
2019-03-01T18:51:50.967Z,100391.84
2019-03-01T18:54:18.399Z,100395.72
2019-03-01T18:56:45.374Z,100396.63
2019-03-01T18:59:12.349Z,100394.27
2019-03-01T19:01:42.827Z,100397.35
2019-03-01T19:04:08.771Z,100402.02
2019-03-01T19:06:36.860Z,100395.42
2019-03-01T19:09:05.856Z,100397.13
2019-03-01T19:11:34.693Z,100404.22
2019-03-01T19:14:02.992Z,100413.22
2019-03-01T19:16:30.093Z,100410.80
2019-03-01T19:18:57.161Z,100414.45
2019-03-01T19:21:24.112Z,100416.27
2019-03-01T19:23:51.097Z,100415.25
2019-03-01T19:26:18.133Z,100420.99
2019-03-01T19:28:45.068Z,100421.06
2019-03-01T19:31:12.048Z,100420.58
2019-03-01T19:33:41.498Z,100422.09
2019-03-01T19:36:07.914Z,100417.08
2019-03-01T19:38:35.086Z,100422.42
2019-03-01T19:41:02.066Z,100421.45
2019-03-01T19:43:29.132Z,100430.66
2019-03-01T19:45:56.080Z,100431.66
2019-03-01T19:48:23.064Z,100432.20
2019-03-01T19:50:50.208Z,100431.29
2019-03-01T19:53:17.275Z,100438.60
2019-03-01T19:55:47.249Z,100432.42
2019-03-01T19:58:13.182Z,100435.70
2019-03-01T20:00:42.622Z,100438.29
2019-03-01T20:03:10.071Z,100441.17
2019-03-01T20:05:38.902Z,100442.33
2019-03-01T20:08:05.866Z,100442.58
2019-03-01T20:10:32.857Z,100449.86
2019-03-01T20:12:59.845Z,100454.30
2019-03-01T20:15:27.607Z,100459.55
2019-03-01T20:17:54.631Z,100460.06
2019-03-01T20:20:21.823Z,100467.97
2019-03-01T20:22:50.505Z,100467.33
2019-03-01T20:25:17.739Z,100469.94
2019-03-01T20:27:44.754Z,100466.30
2019-03-01T20:30:17.162Z,100468.42
2019-03-01T20:32:47.541Z,100479.85
2019-03-01T20:35:13.890Z,100484.96
2019-03-01T20:37:41.035Z,100483.17
2019-03-01T20:40:09.798Z,100488.42
2019-03-01T20:42:36.809Z,100491.99
2019-03-01T20:45:05.099Z,100496.74
2019-03-01T20:47:33.997Z,100491.37
2019-03-01T20:50:00.944Z,100496.62
2019-03-01T20:52:27.892Z,100503.45
2019-03-01T20:54:57.741Z,100503.23
2019-03-01T20:57:26.726Z,100504.06
2019-03-01T20:59:52.695Z,100509.69
2019-03-01T21:02:19.686Z,100504.13
2019-03-01T21:04:53.217Z,100512.27
2019-03-01T21:07:16.506Z,100513.30
2019-03-01T21:09:43.705Z,100512.85
2019-03-01T21:12:11.931Z,100528.27
2019-03-01T21:14:38.908Z,100517.03
2019-03-01T21:17:05.864Z,100526.66
2019-03-01T21:19:32.810Z,100524.48
2019-03-01T21:22:01.529Z,100527.64
2019-03-01T21:24:31.979Z,100522.03
2019-03-01T21:26:58.745Z,100520.52
2019-03-01T21:29:25.703Z,100527.95
2019-03-01T21:31:52.701Z,100522.15
2019-03-01T21:34:19.667Z,100521.92
2019-03-01T21:36:46.655Z,100524.17
2019-03-01T21:39:13.634Z,100523.39
2019-03-01T21:41:41.465Z,100522.23
2019-03-01T21:44:10.579Z,100521.70
2019-03-01T21:46:38.337Z,100523.53
2019-03-01T21:49:05.285Z,100522.72
2019-03-01T21:51:34.840Z,100524.64
2019-03-01T21:54:02.039Z,100536.55
2019-03-01T21:56:30.294Z,100539.40
2019-03-01T21:58:57.322Z,100535.27
2019-03-01T22:01:24.284Z,100538.77
2019-03-01T22:03:51.230Z,100538.87
2019-03-01T22:06:20.645Z,100544.31
2019-03-01T22:08:48.655Z,100543.99
2019-03-01T22:11:15.947Z,100547.41
2019-03-01T22:13:42.886Z,100543.99
2019-03-01T22:16:09.866Z,100553.88
2019-03-01T22:18:37.801Z,100552.05
2019-03-01T22:21:04.755Z,100553.88
2019-03-01T22:23:31.762Z,100556.95
2019-03-01T22:25:58.717Z,100555.48
2019-03-01T22:28:25.677Z,100556.67
2019-03-01T22:30:52.661Z,100560.62
2019-03-01T22:33:20.763Z,100559.52
2019-03-01T22:35:48.475Z,100552.14
2019-03-01T22:38:15.558Z,100549.19
2019-03-01T22:40:42.511Z,100548.86
2019-03-01T22:43:09.449Z,100548.55
2019-03-01T22:45:36.459Z,100547.67
2019-03-01T22:48:03.428Z,100546.42
2019-03-01T22:50:30.385Z,100549.84
2019-03-01T22:52:57.375Z,100549.72
2019-03-01T22:55:24.331Z,100546.67
2019-03-01T22:57:51.280Z,100545.14
2019-03-01T23:01:20.471Z,100538.33
2019-03-01T23:03:51.601Z,100540.36
2019-03-01T23:06:19.173Z,100545.30
2019-03-01T23:08:46.168Z,100545.30
2019-03-01T23:11:13.111Z,100541.08
2019-03-01T23:13:40.045Z,100539.59
2019-03-01T23:16:07.039Z,100544.71
2019-03-01T23:18:34.026Z,100548.97
2019-03-01T23:21:01.926Z,100548.27
2019-03-01T23:23:29.110Z,100554.17
2019-03-01T23:25:56.534Z,100549.37
2019-03-01T23:28:23.479Z,100550.64
2019-03-01T23:30:50.481Z,100543.77
2019-03-01T23:33:17.409Z,100540.83
2019-03-01T23:35:44.478Z,100544.19
2019-03-01T23:38:11.640Z,100541.72
2019-03-01T23:40:40.316Z,100534.41
2019-03-01T23:43:07.274Z,100545.69
2019-03-01T23:45:34.251Z,100544.46
2019-03-01T23:48:01.187Z,100548.73
2019-03-01T23:50:28.145Z,100544.72
2019-03-01T23:52:58.785Z,100541.21
2019-03-01T23:55:24.039Z,100539.98
2019-03-01T23:57:51.003Z,100546.16
